createdAt,value
2022-07-25T00:02:14.644Z,10.40
2022-07-25T00:06:18.036Z,10.23
2022-07-25T00:10:19.747Z,9.80
2022-07-25T00:14:21.273Z,10.25
2022-07-25T00:18:22.718Z,10.50
2022-07-25T00:22:24.122Z,9.48
2022-07-25T00:26:25.571Z,10.30
2022-07-25T00:30:27.360Z,10.60
2022-07-25T00:34:28.760Z,10.27
2022-07-25T00:38:30.240Z,10.65
2022-07-25T00:42:32.519Z,10.38
2022-07-25T00:46:33.995Z,9.52
2022-07-25T00:50:36.194Z,9.68
2022-07-25T00:54:37.797Z,9.82
2022-07-25T00:58:39.263Z,9.30
2022-07-25T01:02:41.753Z,9.82
2022-07-25T01:06:43.788Z,9.43
2022-07-25T01:10:45.945Z,10.52
2022-07-25T01:14:47.393Z,9.57
2022-07-25T01:18:48.894Z,9.57
2022-07-25T01:22:50.934Z,9.82
2022-07-25T01:26:52.473Z,10.60
2022-07-25T01:30:53.905Z,10.80
2022-07-25T01:34:55.409Z,10.15
2022-07-25T01:38:56.901Z,9.90
2022-07-25T01:42:58.355Z,11.32
2022-07-25T01:46:59.783Z,10.43
2022-07-25T01:51:01.222Z,9.77
2022-07-25T01:55:03.266Z,9.77
2022-07-25T01:59:04.655Z,10.77
2022-07-25T02:03:24.838Z,10.57
2022-07-25T02:07:26.316Z,10.63
2022-07-25T02:11:27.811Z,10.25
2022-07-25T02:15:29.346Z,9.57
2022-07-25T02:19:30.802Z,10.15
2022-07-25T02:23:32.237Z,10.57
2022-07-25T02:27:33.693Z,10.65
2022-07-25T02:31:35.110Z,9.43
2022-07-25T02:35:36.560Z,10.13
2022-07-25T02:39:38.105Z,9.25
2022-07-25T02:43:39.536Z,9.90
2022-07-25T02:47:40.989Z,8.98
2022-07-25T02:51:42.396Z,10.45
2022-07-25T02:55:43.850Z,9.68
2022-07-25T02:59:45.347Z,10.32
2022-07-25T03:03:46.863Z,9.73
2022-07-25T03:07:48.388Z,9.13
2022-07-25T03:11:51.885Z,8.95
2022-07-25T03:15:53.331Z,10.70
2022-07-25T03:19:55.394Z,10.55
2022-07-25T03:23:56.814Z,9.65
2022-07-25T03:27:58.886Z,9.60
2022-07-25T03:32:00.662Z,10.20
2022-07-25T03:36:02.227Z,9.93
2022-07-25T03:40:05.116Z,9.80
2022-07-25T03:44:07.193Z,9.82
2022-07-25T03:48:08.982Z,10.18
2022-07-25T03:52:10.442Z,10.00
2022-07-25T03:56:11.864Z,9.32
2022-07-25T04:00:13.598Z,10.57
2022-07-25T04:04:15.598Z,10.68
2022-07-25T04:08:16.977Z,9.85
2022-07-25T04:12:18.493Z,10.43
2022-07-25T04:16:22.201Z,10.82
2022-07-25T04:20:24.257Z,9.95
2022-07-25T04:24:26.551Z,9.60
2022-07-25T04:28:28.019Z,10.80
2022-07-25T04:32:29.430Z,9.07
2022-07-25T04:36:30.963Z,10.05
2022-07-25T04:40:32.443Z,9.10
2022-07-25T04:44:34.059Z,10.02
2022-07-25T04:48:35.585Z,10.07
2022-07-25T04:52:37.047Z,9.07
2022-07-25T04:56:38.567Z,10.38
2022-07-25T05:00:40.235Z,10.73
2022-07-25T05:04:45.421Z,10.45
2022-07-25T05:08:47.254Z,9.80
2022-07-25T05:12:48.816Z,10.45
2022-07-25T05:16:50.437Z,10.88
2022-07-25T05:20:51.913Z,9.57
2022-07-25T05:24:53.369Z,11.40
2022-07-25T05:28:54.824Z,10.10
2022-07-25T05:32:56.325Z,9.68
2022-07-25T05:36:57.796Z,10.73
2022-07-25T05:40:59.250Z,9.98
2022-07-25T05:45:01.302Z,10.00
2022-07-25T05:49:04.913Z,10.23
2022-07-25T05:53:06.726Z,9.32
2022-07-25T05:57:08.607Z,9.15
2022-07-25T06:01:14.426Z,9.32
2022-07-25T06:05:15.836Z,9.75
2022-07-25T06:09:21.353Z,9.02
2022-07-25T06:13:23.634Z,8.95
2022-07-25T06:17:30.534Z,9.50
2022-07-25T06:21:34.008Z,9.73
2022-07-25T06:25:35.443Z,9.02
2022-07-25T06:29:38.020Z,9.32
2022-07-25T06:33:39.488Z,9.38
2022-07-25T06:37:41.004Z,8.68
2022-07-25T06:41:42.491Z,9.38
2022-07-25T06:45:47.400Z,8.35
2022-07-25T06:49:48.949Z,9.13
2022-07-25T06:53:50.404Z,9.05
2022-07-25T06:57:51.907Z,8.95
2022-07-25T07:01:53.542Z,8.50
2022-07-25T07:05:55.489Z,8.63
2022-07-25T07:09:56.957Z,8.32
2022-07-25T07:13:58.484Z,8.80
2022-07-25T07:17:59.992Z,9.27
2022-07-25T07:22:01.699Z,8.93
2022-07-25T07:26:03.704Z,8.73
2022-07-25T07:30:05.637Z,9.38
2022-07-25T07:34:08.371Z,9.88
2022-07-25T07:38:09.906Z,8.75
2022-07-25T07:42:11.528Z,9.07
2022-07-25T07:46:13.129Z,9.25
2022-07-25T07:50:22.589Z,8.93
2022-07-25T07:54:42.889Z,9.43
2022-07-25T07:58:47.297Z,9.35
2022-07-25T08:02:52.934Z,9.10
2022-07-25T08:06:54.631Z,8.60
2022-07-25T08:10:58.973Z,9.05
2022-07-25T08:15:00.994Z,9.10
2022-07-25T08:19:02.505Z,8.57
2022-07-25T08:23:04.114Z,8.30
2022-07-25T08:27:05.558Z,9.32
2022-07-25T08:31:07.250Z,9.18
2022-07-25T08:35:11.519Z,9.15
2022-07-25T08:39:14.525Z,8.30
2022-07-25T08:43:16.845Z,7.55
2022-07-25T08:47:18.362Z,8.63
2022-07-25T08:51:20.207Z,8.32
2022-07-25T08:55:23.023Z,8.07
2022-07-25T08:59:24.516Z,8.27
2022-07-25T09:03:26.677Z,8.15
2022-07-25T09:07:35.478Z,8.35
2022-07-25T09:11:37.913Z,7.95
2022-07-25T09:15:52.258Z,7.43
2022-07-25T09:19:57.457Z,8.18
2022-07-25T09:24:09.224Z,6.93
2022-07-25T09:28:12.936Z,7.57
2022-07-25T09:32:21.259Z,7.38
2022-07-25T09:36:23.306Z,7.55
2022-07-25T09:40:24.791Z,8.55
2022-07-25T09:44:32.279Z,8.05
2022-07-25T09:48:36.907Z,7.68
2022-07-25T09:52:38.671Z,7.55
2022-07-25T09:56:40.327Z,7.95
2022-07-25T10:00:43.017Z,8.48
2022-07-25T10:05:05.728Z,7.35
2022-07-25T10:09:12.245Z,8.00
2022-07-25T10:13:18.110Z,6.95
2022-07-25T10:17:23.352Z,6.95
2022-07-25T10:21:28.446Z,7.75
2022-07-25T10:25:30.794Z,7.32
2022-07-25T10:29:36.335Z,7.38
2022-07-25T10:33:42.294Z,7.85
2022-07-25T10:37:49.009Z,8.67
2022-07-25T10:41:56.062Z,7.75
2022-07-25T10:50:21.972Z,7.45
2022-07-25T10:54:33.939Z,4.75
2022-07-25T10:58:44.190Z,5.18
2022-07-25T11:02:45.977Z,4.65
2022-07-25T11:06:47.585Z,11.00
2022-07-25T11:10:52.949Z,4.55
2022-07-25T11:15:07.656Z,3.15
2022-07-25T11:19:28.864Z,3.45
2022-07-25T11:23:30.411Z,3.50
2022-07-25T11:27:34.018Z,3.60
2022-07-25T11:31:35.811Z,3.83
2022-07-25T11:35:37.350Z,3.75
2022-07-25T11:39:41.359Z,4.10
2022-07-25T11:43:48.505Z,4.28
2022-07-25T11:48:07.602Z,4.78
2022-07-25T11:52:26.126Z,4.40
2022-07-25T11:56:43.773Z,4.35
2022-07-25T12:00:47.342Z,4.20
2022-07-25T12:04:59.164Z,3.83
2022-07-25T12:09:19.384Z,3.42
2022-07-25T12:13:25.921Z,3.95
2022-07-25T12:17:27.325Z,4.80
2022-07-25T12:21:28.802Z,4.90
2022-07-25T12:25:31.484Z,4.78
2022-07-25T12:29:33.283Z,4.45
2022-07-25T12:33:34.915Z,4.10
2022-07-25T12:37:37.452Z,4.75
2022-07-25T12:41:40.267Z,4.38
2022-07-25T12:45:42.658Z,4.00
2022-07-25T12:49:44.192Z,4.20
2022-07-25T12:53:47.861Z,4.80
2022-07-25T12:57:49.532Z,3.90
2022-07-25T13:01:51.179Z,4.53
2022-07-25T13:05:52.900Z,4.63
2022-07-25T13:09:54.397Z,4.40
2022-07-25T13:13:55.861Z,4.47
2022-07-25T13:17:57.362Z,4.97
2022-07-25T13:21:58.992Z,4.63
2022-07-25T13:26:01.345Z,5.10
2022-07-25T13:30:03.122Z,5.05
2022-07-25T13:34:05.890Z,4.88
2022-07-25T13:38:11.379Z,4.78
2022-07-25T13:42:13.350Z,6.15
2022-07-25T13:46:14.999Z,5.63
2022-07-25T13:50:16.576Z,5.68
2022-07-25T13:54:18.034Z,6.25
2022-07-25T13:58:19.503Z,6.40
2022-07-25T14:02:21.093Z,6.50
2022-07-25T14:06:22.667Z,5.60
2022-07-25T14:10:24.180Z,6.10
2022-07-25T14:14:25.735Z,6.65
2022-07-25T14:18:27.586Z,6.50
2022-07-25T14:22:29.887Z,6.50
2022-07-25T14:26:31.804Z,7.47
2022-07-25T14:30:33.349Z,7.03
2022-07-25T14:39:24.317Z,6.65
2022-07-25T14:43:26.582Z,7.22
2022-07-25T14:47:49.067Z,6.97
2022-07-25T14:51:50.855Z,6.78
2022-07-25T14:55:52.337Z,6.85
2022-07-25T14:59:54.095Z,6.63
2022-07-25T15:03:57.103Z,6.93
2022-07-25T15:07:58.611Z,6.78
2022-07-25T15:12:16.157Z,6.68
2022-07-25T15:16:18.409Z,7.40
2022-07-25T15:20:19.990Z,6.75
2022-07-25T15:24:25.714Z,7.53
2022-07-25T15:28:33.899Z,7.72
2022-07-25T15:32:35.936Z,7.20
2022-07-25T15:36:37.621Z,6.88
2022-07-25T15:40:39.239Z,7.32
2022-07-25T15:44:40.815Z,7.55
2022-07-25T15:48:44.770Z,7.63
2022-07-25T15:52:46.728Z,7.40
2022-07-25T15:56:48.276Z,6.88
2022-07-25T16:00:49.706Z,7.43
2022-07-25T16:04:51.306Z,6.95
2022-07-25T16:08:53.150Z,6.75
2022-07-25T16:12:54.734Z,7.47
2022-07-25T16:16:56.215Z,6.57
2022-07-25T16:20:57.900Z,6.47
2022-07-25T16:25:01.442Z,7.15
2022-07-25T16:29:04.015Z,6.63
2022-07-25T16:33:08.938Z,6.30
2022-07-25T16:37:10.442Z,6.93
2022-07-25T16:41:12.464Z,5.82
2022-07-25T16:45:14.838Z,6.40
2022-07-25T16:49:16.728Z,6.90
2022-07-25T16:53:18.407Z,6.30
2022-07-25T16:57:23.833Z,6.28
2022-07-25T17:01:26.944Z,6.40
2022-07-25T17:05:28.506Z,6.65
2022-07-25T17:09:29.950Z,6.50
2022-07-25T17:13:31.462Z,6.57
2022-07-25T17:17:33.953Z,6.05
2022-07-25T17:21:35.489Z,6.05
2022-07-25T17:25:37.393Z,6.75
2022-07-25T17:29:38.887Z,6.00
2022-07-25T17:33:40.499Z,5.97
2022-07-25T17:37:42.161Z,5.95
2022-07-25T17:41:43.607Z,5.85
2022-07-25T17:45:45.071Z,5.65
2022-07-25T17:49:46.591Z,4.88
2022-07-25T17:53:48.026Z,5.38
2022-07-25T17:57:53.061Z,5.60
2022-07-25T18:01:54.609Z,5.20
2022-07-25T18:05:56.160Z,6.15
2022-07-25T18:09:57.838Z,5.45
2022-07-25T18:13:59.746Z,5.28
2022-07-25T18:18:01.600Z,5.35
2022-07-25T18:22:03.791Z,5.25
2022-07-25T18:26:05.316Z,5.57
2022-07-25T18:30:08.041Z,5.55
2022-07-25T18:34:10.017Z,5.82
2022-07-25T18:38:11.778Z,5.93
2022-07-25T18:42:13.221Z,5.20
2022-07-25T18:46:15.130Z,5.25
2022-07-25T18:50:19.886Z,5.18
2022-07-25T18:54:21.402Z,5.80
2022-07-25T18:58:22.905Z,4.28
2022-07-25T19:02:24.586Z,4.18
2022-07-25T19:06:26.083Z,4.68
2022-07-25T19:10:27.591Z,3.95
2022-07-25T19:14:30.623Z,3.97
2022-07-25T19:18:33.634Z,3.60
2022-07-25T19:22:35.205Z,3.10
2022-07-25T19:26:37.341Z,3.08
2022-07-25T19:30:39.144Z,2.60
2022-07-25T19:34:40.690Z,2.90
2022-07-25T19:38:42.147Z,3.42
2022-07-25T19:42:43.658Z,2.95
2022-07-25T19:46:45.430Z,2.35
2022-07-25T19:50:46.946Z,2.22
2022-07-25T19:54:48.420Z,2.42
2022-07-25T19:58:50.321Z,2.08
2022-07-25T20:02:52.008Z,2.00
2022-07-25T20:06:53.921Z,2.33
2022-07-25T20:10:55.452Z,2.60
2022-07-25T20:14:56.891Z,2.13
2022-07-25T20:18:58.519Z,2.30
2022-07-25T20:23:00.060Z,2.90
2022-07-25T20:27:01.933Z,2.60
2022-07-25T20:31:04.186Z,2.60
2022-07-25T20:35:06.267Z,2.13
2022-07-25T20:39:09.272Z,2.53
2022-07-25T20:43:11.252Z,2.28
2022-07-25T20:47:14.756Z,2.13
2022-07-25T20:51:16.599Z,2.45
2022-07-25T20:55:18.233Z,2.08
2022-07-25T20:59:19.731Z,2.33
2022-07-25T21:03:21.324Z,1.80
2022-07-25T21:07:22.873Z,2.10
2022-07-25T21:11:24.466Z,2.05
2022-07-25T21:15:25.912Z,1.67
2022-07-25T21:19:27.384Z,2.25
2022-07-25T21:23:28.910Z,1.98
2022-07-25T21:27:30.364Z,2.15
2022-07-25T21:31:32.672Z,1.73
2022-07-25T21:35:50.518Z,2.00
2022-07-25T21:39:55.099Z,1.45
2022-07-25T21:43:57.180Z,2.08
2022-07-25T21:47:58.595Z,2.28
2022-07-25T21:52:04.097Z,1.58
2022-07-25T21:56:05.678Z,1.67
2022-07-25T22:00:11.819Z,1.48
2022-07-25T22:04:13.274Z,2.17
2022-07-25T22:08:14.759Z,1.52
2022-07-25T22:12:16.289Z,1.92
2022-07-25T22:16:17.827Z,1.67
2022-07-25T22:20:19.786Z,1.65
2022-07-25T22:24:21.365Z,2.15
2022-07-25T22:28:22.842Z,2.22
2022-07-25T22:32:24.380Z,2.78
2022-07-25T22:36:25.865Z,2.22
2022-07-25T22:40:27.323Z,1.70
2022-07-25T22:44:28.816Z,1.52
2022-07-25T22:48:30.320Z,1.80
2022-07-25T22:52:31.881Z,1.30
2022-07-25T22:56:33.529Z,2.85
2022-07-25T23:00:35.319Z,1.92
2022-07-25T23:04:38.374Z,1.85
2022-07-25T23:08:40.537Z,1.65
2022-07-25T23:12:42.015Z,1.80
2022-07-25T23:16:43.604Z,1.63
2022-07-25T23:20:45.182Z,1.42
2022-07-25T23:24:46.975Z,1.90
2022-07-25T23:28:48.377Z,1.33
2022-07-25T23:32:49.874Z,1.92
2022-07-25T23:36:51.380Z,1.60
2022-07-25T23:40:54.782Z,1.48
2022-07-25T23:44:56.272Z,1.58
2022-07-25T23:48:58.630Z,1.02
2022-07-25T23:53:00.223Z,1.50
2022-07-25T23:57:02.192Z,1.45
